createdAt,value
2017-04-30T00:00:36.586Z,1040.36
2017-04-30T00:01:36.573Z,1040.36
2017-04-30T00:02:36.560Z,1040.36
2017-04-30T00:03:36.547Z,1040.37
2017-04-30T00:04:36.533Z,1040.4
2017-04-30T00:05:36.520Z,1040.4
2017-04-30T00:06:36.506Z,1040.4
2017-04-30T00:07:36.494Z,1040.41
2017-04-30T00:08:36.480Z,1040.39
2017-04-30T00:09:36.466Z,1040.43
2017-04-30T00:10:36.491Z,1040.42
2017-04-30T00:11:36.440Z,1040.41
2017-04-30T00:12:36.427Z,1040.42
2017-04-30T00:13:36.414Z,1040.41
2017-04-30T00:14:36.400Z,1040.43
2017-04-30T00:15:36.390Z,1040.43
2017-04-30T00:16:36.375Z,1040.44
2017-04-30T00:17:36.363Z,1040.46
2017-04-30T00:18:36.355Z,1040.44
2017-04-30T00:19:36.336Z,1040.46
2017-04-30T00:20:36.320Z,1040.43
2017-04-30T00:21:36.306Z,1040.45
2017-04-30T00:22:36.293Z,1040.44
2017-04-30T00:23:36.281Z,1040.46
2017-04-30T00:24:36.266Z,1040.47
2017-04-30T00:25:36.252Z,1040.5
2017-04-30T00:26:36.241Z,1040.52
2017-04-30T00:27:36.226Z,1040.52
2017-04-30T00:28:36.212Z,1040.53
2017-04-30T00:29:36.200Z,1040.56
2017-04-30T00:30:36.186Z,1040.56
2017-04-30T00:31:36.172Z,1040.57
2017-04-30T00:32:36.159Z,1040.62
2017-04-30T00:33:36.147Z,1040.61
2017-04-30T00:34:36.133Z,1040.64
2017-04-30T00:35:36.118Z,1040.64
2017-04-30T00:36:36.105Z,1040.62
2017-04-30T00:37:36.092Z,1040.64
2017-04-30T00:38:36.078Z,1040.63
2017-04-30T00:39:36.064Z,1040.62
2017-04-30T00:40:36.051Z,1040.65
2017-04-30T00:41:36.042Z,1040.63
2017-04-30T00:42:36.024Z,1040.62
2017-04-30T00:43:36.011Z,1040.65
2017-04-30T00:44:35.997Z,1040.66
2017-04-30T00:45:35.984Z,1040.67
2017-04-30T00:46:35.969Z,1040.61
2017-04-30T00:47:35.957Z,1040.62
2017-04-30T00:48:35.943Z,1040.67
2017-04-30T00:49:35.928Z,1040.66
2017-04-30T00:50:35.915Z,1040.68
2017-04-30T00:51:35.907Z,1040.69
2017-04-30T00:52:35.891Z,1040.68
2017-04-30T00:53:35.875Z,1040.69
2017-04-30T00:54:35.861Z,1040.71
2017-04-30T00:55:35.848Z,1040.72
2017-04-30T00:56:35.835Z,1040.72
2017-04-30T00:57:35.821Z,1040.74
2017-04-30T00:58:35.809Z,1040.71
2017-04-30T00:59:35.795Z,1040.78
2017-04-30T01:00:35.780Z,1040.78
2017-04-30T01:01:35.767Z,1040.75
2017-04-30T01:02:35.753Z,1040.8
2017-04-30T01:03:35.740Z,1040.81
2017-04-30T01:04:35.730Z,1040.79
2017-04-30T01:05:35.714Z,1040.78
2017-04-30T01:06:35.699Z,1040.81
2017-04-30T01:07:35.685Z,1040.8
2017-04-30T01:08:35.672Z,1040.8
2017-04-30T01:09:35.657Z,1040.78
2017-04-30T01:10:35.644Z,1040.83
2017-04-30T01:11:35.630Z,1040.84
2017-04-30T01:12:35.616Z,1040.8
2017-04-30T01:13:35.603Z,1040.84
2017-04-30T01:14:35.590Z,1040.86
2017-04-30T01:15:35.576Z,1040.89
2017-04-30T01:16:35.561Z,1040.93
2017-04-30T01:17:35.550Z,1040.91
2017-04-30T01:18:35.534Z,1040.93
2017-04-30T01:19:35.520Z,1040.94
2017-04-30T01:20:35.508Z,1040.92
2017-04-30T01:21:35.494Z,1040.93
2017-04-30T01:22:35.479Z,1040.97
2017-04-30T01:23:35.470Z,1040.9
2017-04-30T01:24:35.455Z,1040.94
2017-04-30T01:25:35.438Z,1040.93
2017-04-30T01:26:35.774Z,1040.93
2017-04-30T01:27:35.411Z,1040.92
2017-04-30T01:28:35.398Z,1040.93
2017-04-30T01:29:35.385Z,1040.93
2017-04-30T01:30:35.369Z,1040.95
2017-04-30T01:31:35.658Z,1040.94
2017-04-30T01:32:35.343Z,1040.93
2017-04-30T01:33:35.329Z,1040.96
2017-04-30T01:34:35.315Z,1040.99
2017-04-30T01:35:35.301Z,1040.98
2017-04-30T01:36:35.538Z,1041
2017-04-30T01:37:35.273Z,1041.01
2017-04-30T01:38:35.260Z,1041.04
2017-04-30T01:39:35.246Z,1041.04
2017-04-30T01:40:35.233Z,1041.04
2017-04-30T01:41:35.469Z,1041.07
2017-04-30T01:42:35.205Z,1041.07
2017-04-30T01:43:35.192Z,1041.07
2017-04-30T01:44:35.175Z,1041.09
2017-04-30T01:45:35.163Z,1041.14
2017-04-30T01:46:35.450Z,1041.14
2017-04-30T01:47:35.136Z,1041.12
2017-04-30T01:48:35.128Z,1041.13
2017-04-30T01:49:35.108Z,1041.17
2017-04-30T01:50:35.095Z,1041.19
2017-04-30T01:51:35.080Z,1041.2
2017-04-30T01:52:35.066Z,1041.18
2017-04-30T01:53:35.053Z,1041.19
2017-04-30T01:54:35.039Z,1041.2
2017-04-30T01:55:35.024Z,1041.21
2017-04-30T01:56:35.011Z,1041.23
2017-04-30T01:57:34.998Z,1041.23
2017-04-30T01:58:34.984Z,1041.24
2017-04-30T01:59:34.969Z,1041.23
2017-04-30T02:00:34.956Z,1041.25
2017-04-30T02:01:34.942Z,1041.29
2017-04-30T02:02:34.928Z,1041.26
2017-04-30T02:03:34.914Z,1041.27
2017-04-30T02:04:34.900Z,1041.28
2017-04-30T02:05:34.887Z,1041.31
2017-04-30T02:06:34.902Z,1041.33
2017-04-30T02:07:34.859Z,1041.32
2017-04-30T02:08:34.846Z,1041.33
2017-04-30T02:09:34.832Z,1041.33
2017-04-30T02:10:34.817Z,1041.35
2017-04-30T02:11:34.805Z,1041.33
2017-04-30T02:12:34.791Z,1041.38
2017-04-30T02:13:34.775Z,1041.4
2017-04-30T02:14:34.762Z,1041.42
2017-04-30T02:15:34.747Z,1041.45
2017-04-30T02:16:34.734Z,1041.46
2017-04-30T02:17:34.720Z,1041.46
2017-04-30T02:18:34.708Z,1041.51
2017-04-30T02:19:34.693Z,1041.51
2017-04-30T02:20:34.679Z,1041.49
2017-04-30T02:21:34.664Z,1041.49
2017-04-30T02:22:34.652Z,1041.49
2017-04-30T02:23:34.637Z,1041.54
2017-04-30T02:24:34.622Z,1041.5
2017-04-30T02:25:34.609Z,1041.54
2017-04-30T02:26:34.595Z,1041.51
2017-04-30T02:27:34.582Z,1041.48
2017-04-30T02:28:34.567Z,1041.5
2017-04-30T02:29:34.554Z,1041.47
2017-04-30T02:30:34.540Z,1041.49
2017-04-30T02:31:34.526Z,1041.47
2017-04-30T02:32:34.512Z,1041.46
2017-04-30T02:33:34.501Z,1041.45
2017-04-30T02:34:34.485Z,1041.45
2017-04-30T02:35:34.471Z,1041.49
2017-04-30T02:36:34.457Z,1041.45
2017-04-30T02:37:34.443Z,1041.47
2017-04-30T02:38:34.430Z,1041.45
2017-04-30T02:39:34.415Z,1041.45
2017-04-30T02:40:34.402Z,1041.43
2017-04-30T02:41:34.388Z,1041.45
2017-04-30T02:42:34.374Z,1041.45
2017-04-30T02:43:34.360Z,1041.44
2017-04-30T02:44:34.346Z,1041.43
2017-04-30T02:45:34.332Z,1041.41
2017-04-30T02:46:34.317Z,1041.41
2017-04-30T02:47:34.304Z,1041.4
2017-04-30T02:48:34.291Z,1041.42
2017-04-30T02:49:34.276Z,1041.39
2017-04-30T02:50:34.262Z,1041.44
2017-04-30T02:51:34.249Z,1041.46
2017-04-30T02:52:34.234Z,1041.45
2017-04-30T02:53:34.221Z,1041.47
2017-04-30T02:54:34.206Z,1041.5
2017-04-30T02:55:34.192Z,1041.48
2017-04-30T02:56:34.179Z,1041.49
2017-04-30T02:57:34.165Z,1041.44
2017-04-30T02:58:34.154Z,1041.48
2017-04-30T02:59:34.136Z,1041.49
2017-04-30T03:00:34.123Z,1041.47
2017-04-30T03:01:34.114Z,1041.44
2017-04-30T03:02:34.095Z,1041.48
2017-04-30T03:03:34.081Z,1041.49
2017-04-30T03:04:34.074Z,1041.48
2017-04-30T03:05:34.053Z,1041.48
2017-04-30T03:06:34.046Z,1041.46
2017-04-30T03:07:34.037Z,1041.46
2017-04-30T03:08:34.019Z,1041.48
2017-04-30T03:09:33.997Z,1041.44
2017-04-30T03:10:33.991Z,1041.51
2017-04-30T03:11:33.970Z,1041.44
2017-04-30T03:12:33.956Z,1041.46
2017-04-30T03:13:33.943Z,1041.45
2017-04-30T03:14:33.928Z,1041.47
2017-04-30T03:15:33.913Z,1041.48
2017-04-30T03:16:33.901Z,1041.43
2017-04-30T03:17:33.886Z,1041.44
2017-04-30T03:18:33.872Z,1041.47
2017-04-30T03:19:33.857Z,1041.48
2017-04-30T03:20:33.844Z,1041.46
2017-04-30T03:21:33.830Z,1041.43
2017-04-30T03:22:33.817Z,1041.43
2017-04-30T03:23:33.803Z,1041.41
2017-04-30T03:24:33.789Z,1041.43
2017-04-30T03:25:33.775Z,1041.41
2017-04-30T03:26:33.759Z,1041.41
2017-04-30T03:27:34.046Z,1041.41
2017-04-30T03:28:33.733Z,1041.41
2017-04-30T03:29:33.718Z,1041.37
2017-04-30T03:30:33.704Z,1041.41
2017-04-30T03:31:33.690Z,1041.4
2017-04-30T03:32:33.978Z,1041.39
2017-04-30T03:33:33.664Z,1041.41
2017-04-30T03:34:33.649Z,1041.4
2017-04-30T03:35:33.635Z,1041.4
2017-04-30T03:36:33.622Z,1041.36
2017-04-30T03:37:33.859Z,1041.41
2017-04-30T03:38:33.594Z,1041.39
2017-04-30T03:39:33.580Z,1041.37
2017-04-30T03:40:33.566Z,1041.37
2017-04-30T03:41:33.552Z,1041.34
2017-04-30T03:42:33.838Z,1041.36
2017-04-30T03:43:33.524Z,1041.33
2017-04-30T03:44:33.511Z,1041.34
2017-04-30T03:45:33.497Z,1041.35
2017-04-30T03:46:33.484Z,1041.3
2017-04-30T03:47:33.718Z,1041.34
2017-04-30T03:48:33.455Z,1041.32
2017-04-30T03:49:33.441Z,1041.35
2017-04-30T03:50:33.428Z,1041.35
2017-04-30T03:51:33.414Z,1041.35
2017-04-30T03:52:33.650Z,1041.34
2017-04-30T03:53:33.387Z,1041.34
2017-04-30T03:54:33.373Z,1041.36
2017-04-30T03:55:33.359Z,1041.32
2017-04-30T03:56:33.344Z,1041.32
2017-04-30T03:57:33.631Z,1041.32
2017-04-30T03:58:33.319Z,1041.29
2017-04-30T03:59:33.303Z,1041.27
2017-04-30T04:00:33.290Z,1041.29
2017-04-30T04:01:33.276Z,1041.3
2017-04-30T04:02:33.513Z,1041.28
2017-04-30T04:03:33.249Z,1041.28
2017-04-30T04:04:33.235Z,1041.29
2017-04-30T04:05:33.223Z,1041.29
2017-04-30T04:06:33.208Z,1041.33
2017-04-30T04:07:33.445Z,1041.33
2017-04-30T04:08:33.182Z,1041.35
2017-04-30T04:09:33.168Z,1041.35
2017-04-30T04:10:33.154Z,1041.33
2017-04-30T04:11:33.140Z,1041.31
2017-04-30T04:12:33.427Z,1041.24
2017-04-30T04:13:33.114Z,1041.04
2017-04-30T04:14:33.100Z,1040.76
2017-04-30T04:15:33.088Z,1040.45
2017-04-30T04:16:33.073Z,1040.13
2017-04-30T04:17:33.059Z,1039.85
2017-04-30T04:18:33.047Z,1039.58
2017-04-30T04:19:33.033Z,1039.34
2017-04-30T04:20:33.021Z,1039.16
2017-04-30T04:21:33.008Z,1038.92
2017-04-30T04:22:32.995Z,1038.69
2017-04-30T04:23:32.984Z,1038.48
2017-04-30T04:24:32.972Z,1038.26
2017-04-30T04:25:32.960Z,1038.1
2017-04-30T04:26:32.948Z,1037.9
2017-04-30T04:27:32.938Z,1037.78
2017-04-30T04:28:32.925Z,1037.56
2017-04-30T04:29:32.914Z,1037.36
2017-04-30T04:30:32.903Z,1037.22
2017-04-30T04:31:32.894Z,1037.09
2017-04-30T04:32:32.883Z,1036.94
2017-04-30T04:33:32.873Z,1036.82
2017-04-30T04:34:32.863Z,1036.68
2017-04-30T04:35:32.855Z,1036.56
2017-04-30T04:36:32.844Z,1036.41
2017-04-30T04:37:32.835Z,1036.23
2017-04-30T04:38:32.828Z,1036.09
2017-04-30T04:39:32.820Z,1035.98
2017-04-30T04:40:32.810Z,1035.88
2017-04-30T04:41:32.802Z,1035.73
2017-04-30T04:42:32.795Z,1035.61
2017-04-30T04:43:32.787Z,1035.47
2017-04-30T04:44:32.780Z,1035.39
2017-04-30T04:45:32.771Z,1035.23
2017-04-30T04:46:32.766Z,1035.1
2017-04-30T04:47:32.760Z,1034.99
2017-04-30T04:48:32.753Z,1034.89
2017-04-30T04:49:32.747Z,1034.82
2017-04-30T04:50:32.740Z,1034.81
2017-04-30T04:51:32.735Z,1034.72
2017-04-30T04:52:32.730Z,1034.56
2017-04-30T04:53:32.975Z,1034.5
2017-04-30T04:54:32.719Z,1034.4
2017-04-30T04:55:32.714Z,1034.35
2017-04-30T04:56:32.709Z,1034.32
2017-04-30T04:57:32.705Z,1034.22
2017-04-30T04:58:33.001Z,1034.07
2017-04-30T04:59:32.696Z,1033.99
2017-04-30T05:00:32.693Z,1033.86
2017-04-30T05:01:32.689Z,1033.79
2017-04-30T05:02:32.686Z,1033.62
2017-04-30T05:03:32.933Z,1033.54
2017-04-30T05:04:32.678Z,1033.44
2017-04-30T05:05:32.674Z,1033.36
2017-04-30T05:06:32.672Z,1033.3
2017-04-30T05:07:32.669Z,1033.28
2017-04-30T05:08:32.967Z,1033.25
2017-04-30T05:09:32.664Z,1033.2
2017-04-30T05:10:32.663Z,1033.06
2017-04-30T05:11:32.660Z,1033.03
2017-04-30T05:12:32.659Z,1033
2017-04-30T05:13:32.906Z,1032.92
2017-04-30T05:14:32.654Z,1032.88
2017-04-30T05:15:32.653Z,1032.79
2017-04-30T05:16:32.651Z,1032.79
2017-04-30T05:17:32.677Z,1032.85
2017-04-30T05:18:32.901Z,1032.9
2017-04-30T05:19:32.648Z,1032.88
2017-04-30T05:20:32.646Z,1032.86
2017-04-30T05:21:32.646Z,1032.84
2017-04-30T05:22:32.645Z,1032.79
2017-04-30T05:23:32.894Z,1032.73
2017-04-30T05:24:32.644Z,1032.64
2017-04-30T05:25:32.644Z,1032.55
2017-04-30T05:26:32.644Z,1032.5
2017-04-30T05:27:32.643Z,1032.44
2017-04-30T05:28:32.894Z,1032.44
2017-04-30T05:29:32.643Z,1032.41
2017-04-30T05:30:32.644Z,1032.41
2017-04-30T05:31:32.643Z,1032.37
2017-04-30T05:32:32.645Z,1032.36
2017-04-30T05:33:32.946Z,1032.3
2017-04-30T05:34:32.644Z,1032.32
2017-04-30T05:35:32.645Z,1032.34
2017-04-30T05:36:32.646Z,1032.28
2017-04-30T05:37:32.648Z,1032.29
2017-04-30T05:38:32.948Z,1032.25
2017-04-30T05:39:32.649Z,1032.27
2017-04-30T05:40:32.653Z,1032.24
2017-04-30T05:41:32.651Z,1032.2
2017-04-30T05:42:32.653Z,1032.14
2017-04-30T05:43:32.957Z,1031.94
2017-04-30T05:44:32.655Z,1031.84
2017-04-30T05:45:32.656Z,1031.75
2017-04-30T05:46:32.657Z,1031.56
2017-04-30T05:47:32.659Z,1031.46
2017-04-30T05:48:32.912Z,1031.37
2017-04-30T05:49:32.662Z,1031.17
2017-04-30T05:50:32.664Z,1031.07
2017-04-30T05:51:32.667Z,1031.01
2017-04-30T05:52:32.668Z,1030.97
2017-04-30T05:53:33.022Z,1031
2017-04-30T05:54:32.678Z,1031.04
2017-04-30T05:55:32.677Z,1031.04
2017-04-30T05:56:32.679Z,1030.97
2017-04-30T05:57:32.682Z,1030.9
2017-04-30T05:58:32.935Z,1030.81
2017-04-30T05:59:32.688Z,1030.74
2017-04-30T06:00:32.690Z,1030.79
2017-04-30T06:01:32.694Z,1030.73
2017-04-30T06:02:32.697Z,1030.72
2017-04-30T06:03:33.002Z,1030.68
2017-04-30T06:04:32.703Z,1030.68
2017-04-30T06:05:32.709Z,1030.67
2017-04-30T06:06:32.711Z,1030.6
2017-04-30T06:07:32.714Z,1030.51
2017-04-30T06:08:32.968Z,1030.4
2017-04-30T06:09:32.722Z,1030.37
2017-04-30T06:10:32.726Z,1030.28
2017-04-30T06:11:32.730Z,1030.23
2017-04-30T06:12:32.733Z,1030.06
2017-04-30T06:13:32.989Z,1029.99
2017-04-30T06:14:32.741Z,1030.06
2017-04-30T06:15:32.747Z,1030.19
2017-04-30T06:16:32.750Z,1030.18
2017-04-30T06:17:32.756Z,1030.11
2017-04-30T06:18:33.010Z,1030.01
2017-04-30T06:19:32.765Z,1030.02
2017-04-30T06:20:32.770Z,1029.98
2017-04-30T06:21:32.775Z,1029.91
2017-04-30T06:22:32.780Z,1029.73
2017-04-30T06:23:33.036Z,1029.57
2017-04-30T06:24:32.791Z,1029.51
2017-04-30T06:25:32.796Z,1029.4
2017-04-30T06:26:32.801Z,1029.39
2017-04-30T06:27:32.808Z,1029.32
2017-04-30T06:28:33.065Z,1029.21
2017-04-30T06:29:32.819Z,1029.23
2017-04-30T06:30:32.826Z,1029.16
2017-04-30T06:31:32.834Z,1029.08
2017-04-30T06:32:32.839Z,1029.09
2017-04-30T06:33:33.146Z,1029.05
2017-04-30T06:34:32.853Z,1029.15
2017-04-30T06:35:32.859Z,1029.2
2017-04-30T06:36:32.865Z,1029.18
2017-04-30T06:37:32.873Z,1029.01
2017-04-30T06:38:32.880Z,1028.89
2017-04-30T06:39:32.887Z,1028.8
2017-04-30T06:40:32.894Z,1028.76
2017-04-30T06:41:32.901Z,1028.65
2017-04-30T06:42:32.910Z,1028.59
2017-04-30T06:43:32.917Z,1028.63
2017-04-30T06:44:32.924Z,1028.69
2017-04-30T06:45:32.931Z,1028.58
2017-04-30T06:46:32.939Z,1028.48
2017-04-30T06:47:32.946Z,1028.43
2017-04-30T06:48:32.955Z,1028.48
2017-04-30T06:49:32.963Z,1028.49
2017-04-30T06:50:32.971Z,1028.53
2017-04-30T06:51:32.978Z,1028.49
2017-04-30T06:52:32.987Z,1028.52
2017-04-30T06:53:32.995Z,1028.53
2017-04-30T06:54:33.004Z,1028.46
2017-04-30T06:55:33.011Z,1028.48
2017-04-30T06:56:33.020Z,1028.37
2017-04-30T06:57:33.028Z,1028.3
2017-04-30T06:58:33.035Z,1028.22
2017-04-30T06:59:33.043Z,1028.12
2017-04-30T07:00:33.051Z,1028.06
2017-04-30T07:01:33.060Z,1028.02
2017-04-30T07:02:33.069Z,1028.01
2017-04-30T07:03:33.077Z,1028.05
2017-04-30T07:04:33.086Z,1028.05
2017-04-30T07:05:33.095Z,1027.99
2017-04-30T07:06:33.102Z,1028.05
2017-04-30T07:07:33.111Z,1028.04
2017-04-30T07:08:33.122Z,1028.08
2017-04-30T07:09:33.128Z,1028.11
2017-04-30T07:10:33.137Z,1028.19
2017-04-30T07:11:33.145Z,1028.24
2017-04-30T07:12:33.155Z,1028.29
2017-04-30T07:13:33.162Z,1028.32
2017-04-30T07:14:33.171Z,1028.38
2017-04-30T07:15:33.180Z,1028.38
2017-04-30T07:16:33.190Z,1028.45
2017-04-30T07:17:33.197Z,1028.48
2017-04-30T07:18:33.210Z,1028.53
2017-04-30T07:19:33.215Z,1028.6
2017-04-30T07:20:33.222Z,1028.65
2017-04-30T07:21:33.230Z,1028.65
2017-04-30T07:22:33.239Z,1028.72
2017-04-30T07:23:33.248Z,1028.73
2017-04-30T07:24:33.255Z,1028.71
2017-04-30T07:25:33.264Z,1028.77
2017-04-30T07:26:33.272Z,1029.31
2017-04-30T07:27:33.278Z,1028.96
2017-04-30T07:28:33.286Z,1028.68
2017-04-30T07:29:33.295Z,1028.57
2017-04-30T07:30:33.303Z,1028.54
2017-04-30T07:31:33.310Z,1028.53
2017-04-30T07:32:33.318Z,1028.55
2017-04-30T07:33:33.328Z,1028.52
2017-04-30T07:34:33.335Z,1028.66
2017-04-30T07:35:33.343Z,1028.94
2017-04-30T07:36:33.351Z,1029.11
2017-04-30T07:37:33.359Z,1029.26
2017-04-30T07:38:33.366Z,1029.35
2017-04-30T07:39:33.375Z,1029.48
2017-04-30T07:40:33.384Z,1029.42
2017-04-30T07:41:33.392Z,1029.36
2017-04-30T07:42:33.401Z,1029.18
2017-04-30T07:43:33.410Z,1028.96
2017-04-30T07:44:33.417Z,1028.65
2017-04-30T07:45:33.427Z,1028.25
2017-04-30T07:46:33.433Z,1028.04
2017-04-30T07:47:33.442Z,1027.62
2017-04-30T07:48:33.452Z,1027.76
2017-04-30T07:49:33.459Z,1027.63
2017-04-30T07:50:33.468Z,1027.37
2017-04-30T07:51:33.478Z,1027.21
2017-04-30T07:52:33.488Z,1027.3
2017-04-30T07:53:33.497Z,1027.08
2017-04-30T07:54:33.507Z,1026.78
2017-04-30T07:55:33.519Z,1027.3
2017-04-30T07:56:33.527Z,1026.77
2017-04-30T07:57:33.537Z,1026.96
2017-04-30T07:58:33.547Z,1026.5
2017-04-30T07:59:33.557Z,1026.24
2017-04-30T08:00:33.572Z,1026.17
2017-04-30T08:01:33.578Z,1026.06
2017-04-30T08:02:33.590Z,1026.62
2017-04-30T08:03:33.602Z,1026.73
2017-04-30T08:04:33.611Z,1026.49
2017-04-30T08:05:33.620Z,1026.52
2017-04-30T08:06:33.631Z,1026.69
2017-04-30T08:07:33.642Z,1026.88
2017-04-30T08:08:33.652Z,1027.28
2017-04-30T08:09:33.663Z,1027.69
2017-04-30T08:10:33.673Z,1028.12
2017-04-30T08:11:33.683Z,1028.43
2017-04-30T08:12:33.693Z,1028.56
2017-04-30T08:13:33.703Z,1028.69
2017-04-30T08:14:33.712Z,1028.77
2017-04-30T08:15:33.722Z,1028.78
2017-04-30T08:16:33.731Z,1028.91
2017-04-30T08:17:33.744Z,1029.04
2017-04-30T08:18:33.750Z,1029.06
2017-04-30T08:19:33.758Z,1029.18
2017-04-30T08:20:33.768Z,1029.25
2017-04-30T08:21:33.777Z,1029.4
2017-04-30T08:22:33.784Z,1029.68
2017-04-30T08:23:33.793Z,1029.83
2017-04-30T08:24:33.802Z,1029.84
2017-04-30T08:25:33.810Z,1029.72
2017-04-30T08:26:33.817Z,1029.64
2017-04-30T08:27:33.827Z,1029.44
2017-04-30T08:28:33.834Z,1029.43
2017-04-30T08:29:33.841Z,1029.44
2017-04-30T08:30:33.848Z,1029.51
2017-04-30T08:31:33.856Z,1029.56
2017-04-30T08:32:33.864Z,1029.81
2017-04-30T08:33:33.870Z,1030.55
2017-04-30T08:34:33.877Z,1031.63
2017-04-30T08:35:33.885Z,1032.44
2017-04-30T08:36:33.891Z,1033.3
2017-04-30T08:37:33.897Z,1033.8
2017-04-30T08:38:33.902Z,1034.39
2017-04-30T08:39:33.907Z,1034.82
2017-04-30T08:40:33.912Z,1035.09
2017-04-30T08:41:33.915Z,1035.42
2017-04-30T08:42:33.921Z,1035.81
2017-04-30T08:43:33.923Z,1035.96
2017-04-30T08:44:33.924Z,1036.22
2017-04-30T08:45:33.926Z,1036.39
2017-04-30T08:46:33.927Z,1036.48
2017-04-30T08:47:33.928Z,1036.6
2017-04-30T08:50:33.926Z,1037.01
2017-04-30T08:51:33.926Z,1037.24
2017-04-30T08:52:33.925Z,1037.28
2017-04-30T08:57:33.913Z,1037.63
2017-04-30T08:58:33.910Z,1037.62
2017-04-30T08:59:33.904Z,1037.66
2017-04-30T09:00:33.901Z,1037.76
2017-04-30T09:01:33.898Z,1037.75
2017-04-30T09:03:33.889Z,1037.84
2017-04-30T09:04:33.887Z,1037.98
2017-04-30T09:05:33.881Z,1037.98
2017-04-30T09:06:33.876Z,1037.96
2017-04-30T09:07:33.871Z,1038.04
2017-04-30T09:08:33.868Z,1038.1
2017-04-30T09:09:33.863Z,1038.1
2017-04-30T09:10:33.858Z,1038.18
2017-04-30T09:11:33.854Z,1038.09
2017-04-30T09:12:33.849Z,1038.12
2017-04-30T09:13:33.845Z,1038.13
2017-04-30T09:14:33.839Z,1038.05
2017-04-30T09:15:33.834Z,1038.11
2017-04-30T09:16:33.829Z,1038.11
2017-04-30T09:17:33.824Z,1038.15
2017-04-30T09:18:33.818Z,1038.14
2017-04-30T09:19:33.813Z,1038.11
2017-04-30T09:20:33.809Z,1038
2017-04-30T09:21:33.802Z,1038.05
2017-04-30T09:22:33.797Z,1038.17
2017-04-30T09:23:33.793Z,1038.04
2017-04-30T09:24:33.786Z,1037.96
2017-04-30T09:25:33.782Z,1038.02
2017-04-30T09:26:33.776Z,1037.98
2017-04-30T09:27:33.771Z,1037.97
2017-04-30T09:28:33.766Z,1037.97
2017-04-30T09:29:33.762Z,1037.99
2017-04-30T09:30:33.755Z,1038.11
2017-04-30T09:31:33.751Z,1037.96
2017-04-30T09:32:33.748Z,1037.88
2017-04-30T09:33:33.739Z,1037.89
2017-04-30T09:34:33.733Z,1037.84
2017-04-30T09:35:33.729Z,1037.78
2017-04-30T09:36:33.721Z,1037.76
2017-04-30T09:37:33.717Z,1037.68
2017-04-30T09:38:33.711Z,1037.66
2017-04-30T09:39:33.706Z,1037.7
2017-04-30T09:40:33.700Z,1037.57
2017-04-30T09:41:33.695Z,1037.54
2017-04-30T09:42:33.691Z,1037.5
2017-04-30T09:43:33.684Z,1037.5
2017-04-30T09:44:33.678Z,1037.49
2017-04-30T09:45:33.673Z,1037.48
2017-04-30T09:46:33.667Z,1037.57
2017-04-30T09:47:33.662Z,1037.69
2017-04-30T09:48:33.658Z,1037.7
2017-04-30T09:49:33.652Z,1037.75
2017-04-30T09:50:33.646Z,1037.66
2017-04-30T09:51:33.640Z,1037.74
2017-04-30T09:52:33.635Z,1037.75
2017-04-30T09:53:33.630Z,1037.73
2017-04-30T09:54:33.623Z,1037.73
2017-04-30T09:55:33.617Z,1037.73
2017-04-30T09:56:33.613Z,1037.73
2017-04-30T09:57:33.606Z,1037.73
2017-04-30T09:58:33.601Z,1037.71
2017-04-30T09:59:33.596Z,1037.72
2017-04-30T10:00:33.592Z,1037.72
2017-04-30T10:01:33.584Z,1037.77
2017-04-30T10:02:33.583Z,1037.66
2017-04-30T10:03:33.573Z,1037.6
2017-04-30T10:04:33.568Z,1037.52
2017-04-30T10:05:33.561Z,1037.44
2017-04-30T10:06:33.556Z,1037.37
2017-04-30T10:07:33.551Z,1037.37
2017-04-30T10:08:33.543Z,1037.31
2017-04-30T10:09:33.540Z,1037.17
2017-04-30T10:10:33.532Z,1037.21
2017-04-30T10:11:33.528Z,1037.13
2017-04-30T10:12:33.522Z,1037.16
2017-04-30T10:13:33.516Z,1037.11
2017-04-30T10:14:33.511Z,1037.12
2017-04-30T10:15:33.506Z,1037.13
2017-04-30T10:16:33.499Z,1037.19
2017-04-30T10:17:33.497Z,1037.27
2017-04-30T10:18:33.488Z,1037.31
2017-04-30T10:19:33.482Z,1037.31
2017-04-30T10:20:33.477Z,1037.31
2017-04-30T10:21:33.473Z,1037.24
2017-04-30T10:22:33.467Z,1037.17
2017-04-30T10:23:33.461Z,1037.1
2017-04-30T10:24:33.455Z,1037.03
2017-04-30T10:25:33.749Z,1037
2017-04-30T10:26:33.444Z,1036.99
2017-04-30T10:27:33.439Z,1036.82
2017-04-30T10:28:33.433Z,1036.75
2017-04-30T10:29:33.428Z,1036.6
2017-04-30T10:30:33.722Z,1036.69
2017-04-30T10:31:33.419Z,1036.73
2017-04-30T10:32:33.412Z,1036.7
2017-04-30T10:33:33.407Z,1036.6
2017-04-30T10:34:33.401Z,1036.6
2017-04-30T10:35:33.646Z,1036.57
2017-04-30T10:36:33.390Z,1036.44
2017-04-30T10:37:33.386Z,1036.38
2017-04-30T10:38:33.379Z,1036.42
2017-04-30T10:39:33.374Z,1036.56
2017-04-30T10:40:33.620Z,1036.55
2017-04-30T10:41:33.363Z,1036.58
2017-04-30T10:42:33.358Z,1036.71
2017-04-30T10:43:33.353Z,1036.54
2017-04-30T10:44:33.347Z,1036.65
2017-04-30T10:45:33.592Z,1036.57
2017-04-30T10:46:33.338Z,1036.57
2017-04-30T10:47:33.335Z,1036.68
2017-04-30T10:48:33.326Z,1036.62
2017-04-30T10:49:33.322Z,1036.62
2017-04-30T10:50:33.618Z,1036.81
2017-04-30T10:51:33.312Z,1036.89
2017-04-30T10:52:33.307Z,1036.72
2017-04-30T10:53:33.302Z,1036.82
2017-04-30T10:54:33.296Z,1036.63
2017-04-30T10:55:33.541Z,1036.54
2017-04-30T10:56:33.285Z,1036.45
2017-04-30T10:57:33.280Z,1036.24
2017-04-30T10:58:33.275Z,1036.43
2017-04-30T10:59:33.269Z,1036.42
2017-04-30T11:00:33.614Z,1036.31
2017-04-30T11:01:33.259Z,1036.4
2017-04-30T11:02:33.254Z,1036.33
2017-04-30T11:03:33.248Z,1036.29
2017-04-30T11:04:33.243Z,1036.31
2017-04-30T11:05:33.589Z,1036.36
2017-04-30T11:06:33.233Z,1036.33
2017-04-30T11:07:33.228Z,1036.31
2017-04-30T11:08:33.222Z,1036.23
2017-04-30T11:09:33.220Z,1036.11
2017-04-30T11:10:33.461Z,1036.15
2017-04-30T11:11:33.207Z,1036.09
2017-04-30T11:12:33.202Z,1036.12
2017-04-30T11:13:33.197Z,1036.1
2017-04-30T11:14:33.191Z,1036.09
2017-04-30T11:15:33.486Z,1036.12
2017-04-30T11:16:33.182Z,1036.09
2017-04-30T11:17:33.179Z,1036.04
2017-04-30T11:18:33.172Z,1035.97
2017-04-30T11:19:33.166Z,1035.99
2017-04-30T11:20:33.412Z,1035.89
2017-04-30T11:21:33.156Z,1035.89
2017-04-30T11:22:33.153Z,1035.92
2017-04-30T11:23:33.147Z,1035.82
2017-04-30T11:24:33.143Z,1035.99
2017-04-30T11:25:33.437Z,1035.96
2017-04-30T11:26:33.133Z,1035.97
2017-04-30T11:27:33.126Z,1035.86
2017-04-30T11:28:33.123Z,1035.77
2017-04-30T11:29:33.117Z,1035.75
2017-04-30T11:30:33.112Z,1035.72
2017-04-30T11:31:33.108Z,1035.7
2017-04-30T11:32:33.103Z,1035.61
2017-04-30T11:33:33.098Z,1035.52
2017-04-30T11:34:33.093Z,1035.44
2017-04-30T11:35:33.089Z,1035.53
2017-04-30T11:36:33.083Z,1035.59
2017-04-30T11:37:33.079Z,1035.5
2017-04-30T11:38:33.074Z,1035.44
2017-04-30T11:39:33.069Z,1035.51
2017-04-30T11:40:33.064Z,1035.48
2017-04-30T11:41:33.059Z,1035.6
2017-04-30T11:42:33.055Z,1035.6
2017-04-30T11:43:33.050Z,1035.67
2017-04-30T11:44:33.045Z,1035.77
2017-04-30T11:45:33.041Z,1035.75
2017-04-30T11:46:33.036Z,1035.85
2017-04-30T11:47:33.030Z,1035.79
2017-04-30T11:48:33.027Z,1035.72
2017-04-30T11:49:33.021Z,1035.78
2017-04-30T11:50:33.018Z,1035.81
2017-04-30T11:51:33.011Z,1035.84
2017-04-30T11:52:33.006Z,1035.95
2017-04-30T11:53:33.002Z,1035.87
2017-04-30T11:54:32.996Z,1035.95
2017-04-30T11:55:32.991Z,1035.91
2017-04-30T11:56:32.986Z,1035.92
2017-04-30T11:57:32.982Z,1035.94
2017-04-30T11:58:32.980Z,1035.77
2017-04-30T11:59:32.973Z,1035.78
2017-04-30T12:00:32.967Z,1035.76
2017-04-30T12:01:32.961Z,1035.78
2017-04-30T12:02:32.956Z,1035.72
2017-04-30T12:03:32.951Z,1035.69
2017-04-30T12:04:32.947Z,1035.72
2017-04-30T12:05:32.941Z,1035.72
2017-04-30T12:06:32.936Z,1035.63
2017-04-30T12:07:32.931Z,1035.66
2017-04-30T12:08:32.927Z,1035.72
2017-04-30T12:09:32.920Z,1035.61
2017-04-30T12:10:32.916Z,1035.64
2017-04-30T12:11:32.910Z,1035.63
2017-04-30T12:12:32.904Z,1035.63
2017-04-30T12:13:32.899Z,1035.56
2017-04-30T12:14:32.894Z,1035.57
2017-04-30T12:15:32.888Z,1035.66